createdAt,value
2022-08-05T00:01:36.145Z,6.97
2022-08-05T00:04:18.688Z,11.60
2022-08-05T00:06:46.995Z,7.60
2022-08-05T00:09:15.891Z,8.83
2022-08-05T00:11:49.497Z,9.88
2022-08-05T00:14:29.146Z,9.27
2022-08-05T00:16:57.012Z,9.35
2022-08-05T00:19:33.830Z,7.93
2022-08-05T00:22:11.734Z,8.87
2022-08-05T00:24:42.555Z,10.85
2022-08-05T00:27:10.488Z,9.38
2022-08-05T00:29:43.664Z,9.60
2022-08-05T00:32:15.336Z,8.57
2022-08-05T00:35:04.789Z,10.83
2022-08-05T00:37:35.881Z,8.90
2022-08-05T00:40:26.613Z,11.70
2022-08-05T00:42:59.799Z,9.82
2022-08-05T00:45:39.162Z,8.82
2022-08-05T00:48:27.460Z,12.87
2022-08-05T00:50:58.538Z,10.50
2022-08-05T00:54:00.618Z,12.30
2022-08-05T00:56:14.947Z,8.95
2022-08-05T00:58:45.428Z,14.57
2022-08-05T01:01:15.429Z,9.03
2022-08-05T01:03:52.608Z,9.70
2022-08-05T01:06:19.558Z,9.65
2022-08-05T01:08:47.393Z,10.75
2022-08-05T01:11:33.721Z,13.68
2022-08-05T01:14:18.101Z,11.40
2022-08-05T01:17:05.367Z,11.57
2022-08-05T01:20:02.184Z,10.15
2022-08-05T01:23:23.362Z,9.65
2022-08-05T01:26:35.630Z,9.07
2022-08-05T01:29:11.155Z,9.70
2022-08-05T01:31:44.885Z,6.13
2022-08-05T01:34:26.688Z,12.38
2022-08-05T01:37:24.409Z,7.35
2022-08-05T01:39:58.922Z,10.35
2022-08-05T01:42:28.412Z,9.93
2022-08-05T01:45:02.322Z,9.20
2022-08-05T01:47:38.825Z,9.73
2022-08-05T01:50:17.727Z,8.48
2022-08-05T01:52:50.001Z,11.07
2022-08-05T01:55:20.877Z,7.73
2022-08-05T01:58:09.771Z,11.85
2022-08-05T02:00:42.370Z,9.45
2022-08-05T02:03:39.749Z,11.32
2022-08-05T02:06:23.918Z,9.65
2022-08-05T02:08:58.949Z,10.07
2022-08-05T02:11:52.481Z,7.03
2022-08-05T02:14:47.103Z,7.95
2022-08-05T02:18:27.916Z,9.65
2022-08-05T02:20:22.250Z,8.27
2022-08-05T02:23:01.470Z,10.07
2022-08-05T02:25:49.419Z,5.43
2022-08-05T02:28:28.633Z,8.20
2022-08-05T02:31:21.592Z,6.75
2022-08-05T02:34:11.805Z,8.50
2022-08-05T02:36:49.417Z,9.80
2022-08-05T02:39:20.528Z,7.93
2022-08-05T02:42:00.475Z,11.10
2022-08-05T02:44:30.585Z,8.82
2022-08-05T02:47:00.711Z,11.23
2022-08-05T02:49:36.935Z,11.60
2022-08-05T02:52:30.167Z,6.90
2022-08-05T02:55:01.705Z,7.95
2022-08-05T02:58:11.773Z,8.95
2022-08-05T03:00:20.357Z,10.82
2022-08-05T03:02:49.034Z,6.97
2022-08-05T03:05:17.400Z,7.38
2022-08-05T03:08:04.603Z,9.98
2022-08-05T03:10:35.998Z,7.43
2022-08-05T03:13:16.885Z,8.98
2022-08-05T03:15:48.473Z,9.70
2022-08-05T03:18:18.911Z,9.10
2022-08-05T03:20:56.883Z,9.70
2022-08-05T03:23:24.789Z,9.75
2022-08-05T03:26:04.281Z,10.60
2022-08-05T03:28:38.833Z,14.20
2022-08-05T03:31:06.363Z,9.50
2022-08-05T03:33:51.080Z,11.02
2022-08-05T03:36:30.126Z,7.47
2022-08-05T03:38:58.113Z,10.77
2022-08-05T03:41:25.416Z,8.70
2022-08-05T03:44:11.508Z,8.50
2022-08-05T03:46:38.997Z,8.52
2022-08-05T03:49:06.548Z,10.00
2022-08-05T03:52:48.462Z,9.05
2022-08-05T03:56:04.182Z,14.63
2022-08-05T03:57:45.943Z,8.65
2022-08-05T04:00:16.400Z,8.82
2022-08-05T04:02:57.578Z,8.20
2022-08-05T04:05:33.214Z,9.00
2022-08-05T04:08:30.180Z,12.30
2022-08-05T04:10:55.646Z,9.43
2022-08-05T04:13:22.764Z,9.18
2022-08-05T04:16:02.870Z,10.13
2022-08-05T04:18:32.200Z,9.60
2022-08-05T04:21:02.467Z,10.50
2022-08-05T04:23:57.151Z,9.25
2022-08-05T04:26:19.173Z,11.95
2022-08-05T04:28:51.306Z,7.65
2022-08-05T04:31:19.915Z,9.60
2022-08-05T04:34:18.182Z,10.80
2022-08-05T04:36:45.811Z,8.77
2022-08-05T04:39:16.910Z,9.15
2022-08-05T04:41:45.860Z,8.85
2022-08-05T04:44:21.012Z,12.02
2022-08-05T04:46:51.411Z,9.03
2022-08-05T04:49:24.572Z,11.15
2022-08-05T04:52:00.229Z,11.55
2022-08-05T04:54:27.613Z,8.48
2022-08-05T04:56:58.953Z,11.55
2022-08-05T04:59:39.131Z,9.40
2022-08-05T05:02:41.223Z,8.30
2022-08-05T05:05:02.818Z,8.68
2022-08-05T05:07:32.181Z,7.30
2022-08-05T05:10:04.076Z,10.30
2022-08-05T05:12:31.168Z,10.33
2022-08-05T05:14:58.156Z,10.35
2022-08-05T05:17:55.573Z,8.05
2022-08-05T05:20:13.572Z,9.50
2022-08-05T05:22:41.535Z,10.25
2022-08-05T05:25:16.504Z,9.40
2022-08-05T05:27:53.591Z,10.60
2022-08-05T05:30:31.184Z,10.20
2022-08-05T05:33:09.042Z,11.00
2022-08-05T05:35:45.490Z,9.98
2022-08-05T05:38:13.798Z,8.20
2022-08-05T05:40:50.187Z,10.10
2022-08-05T05:43:22.112Z,8.40
2022-08-05T05:46:12.270Z,8.63
2022-08-05T05:48:44.027Z,9.57
2022-08-05T05:51:13.090Z,8.60
2022-08-05T05:53:54.072Z,6.57
2022-08-05T05:56:32.964Z,6.30
2022-08-05T05:59:08.056Z,8.40
2022-08-05T06:01:40.761Z,8.15
2022-08-05T06:04:24.483Z,6.20
2022-08-05T06:06:51.458Z,9.18
2022-08-05T06:09:25.596Z,9.40
2022-08-05T06:12:01.401Z,10.13
2022-08-05T06:14:33.274Z,8.82
2022-08-05T06:17:31.864Z,5.63
2022-08-05T06:19:56.958Z,5.15
2022-08-05T06:22:35.335Z,7.28
2022-08-05T06:25:24.535Z,5.88
2022-08-05T06:28:10.783Z,4.55
2022-08-05T06:30:38.564Z,6.30
2022-08-05T06:33:05.501Z,4.88
2022-08-05T06:36:07.341Z,6.90
2022-08-05T06:38:36.407Z,5.63
2022-08-05T06:41:05.305Z,5.53
2022-08-05T06:43:57.506Z,4.93
2022-08-05T06:46:23.778Z,6.85
2022-08-05T06:48:58.756Z,5.88
2022-08-05T06:51:29.794Z,5.55
2022-08-05T06:54:02.528Z,5.75
2022-08-05T06:56:33.336Z,4.80
2022-08-05T06:59:03.643Z,5.90
2022-08-05T07:01:35.707Z,6.07
2022-08-05T07:04:03.888Z,4.03
2022-08-05T07:06:31.941Z,5.80
2022-08-05T07:09:00.288Z,5.17
2022-08-05T07:11:32.893Z,5.55
2022-08-05T07:14:29.600Z,5.95
2022-08-05T07:18:00.996Z,8.45
2022-08-05T07:22:39.703Z,6.40
2022-08-05T07:25:54.805Z,7.45
2022-08-05T07:28:03.800Z,4.13
2022-08-05T07:30:38.456Z,5.45
2022-08-05T07:33:15.607Z,3.30
2022-08-05T07:36:01.750Z,3.63
2022-08-05T07:38:33.803Z,3.83
2022-08-05T07:42:09.232Z,6.65
2022-08-05T07:44:00.500Z,4.22
2022-08-05T07:46:31.308Z,4.10
2022-08-05T07:49:05.964Z,3.63
2022-08-05T07:51:41.079Z,5.22
2022-08-05T07:54:26.772Z,5.45
2022-08-05T07:57:02.704Z,3.55
2022-08-05T07:59:46.977Z,3.58
2022-08-05T08:02:17.564Z,2.53
2022-08-05T08:04:49.761Z,2.63
2022-08-05T08:07:22.094Z,4.03
2022-08-05T08:09:52.299Z,4.32
2022-08-05T08:12:36.993Z,5.40
2022-08-05T08:15:15.038Z,5.60
2022-08-05T08:17:49.914Z,3.10
2022-08-05T08:20:43.862Z,3.20
2022-08-05T08:24:00.273Z,4.57
2022-08-05T08:25:59.356Z,3.45
2022-08-05T08:28:36.716Z,5.87
2022-08-05T08:31:09.636Z,5.55
2022-08-05T08:33:42.002Z,2.92
2022-08-05T08:36:37.411Z,3.90
2022-08-05T08:38:58.246Z,3.10
2022-08-05T08:41:52.446Z,3.73
2022-08-05T08:45:20.090Z,2.17
2022-08-05T08:47:47.668Z,4.00
2022-08-05T08:50:05.802Z,3.85
2022-08-05T08:52:53.040Z,4.65
2022-08-05T08:56:01.726Z,4.23
2022-08-05T08:58:12.822Z,4.85
2022-08-05T09:00:42.485Z,4.32
2022-08-05T09:03:16.284Z,10.13
2022-08-05T09:06:09.180Z,4.18
2022-08-05T09:08:34.869Z,3.47
2022-08-05T09:11:04.383Z,4.20
2022-08-05T09:14:01.199Z,5.03
2022-08-05T09:16:26.825Z,5.22
2022-08-05T09:18:55.483Z,3.88
2022-08-05T09:22:17.685Z,3.53
2022-08-05T09:24:13.067Z,5.28
2022-08-05T09:26:46.166Z,3.72
2022-08-05T09:29:16.262Z,4.13
2022-08-05T09:32:40.933Z,4.05
2022-08-05T09:34:55.921Z,3.93
2022-08-05T09:38:12.093Z,4.18
2022-08-05T09:40:41.062Z,2.63
2022-08-05T09:43:41.627Z,6.03
2022-08-05T09:46:31.644Z,4.22
2022-08-05T09:49:07.955Z,3.90
2022-08-05T09:51:50.051Z,3.05
2022-08-05T09:54:21.270Z,4.05
2022-08-05T09:56:57.384Z,4.93
2022-08-05T09:59:27.546Z,4.25
2022-08-05T10:01:58.194Z,4.53
2022-08-05T10:04:38.585Z,4.30
2022-08-05T10:07:21.001Z,3.83
2022-08-05T10:10:14.443Z,2.78
2022-08-05T10:12:49.191Z,3.63
2022-08-05T10:15:22.724Z,3.50
2022-08-05T10:18:17.321Z,3.00
2022-08-05T10:20:47.853Z,2.20
2022-08-05T10:23:55.437Z,3.75
2022-08-05T10:26:13.995Z,3.55
2022-08-05T10:28:44.113Z,4.07
2022-08-05T10:32:48.662Z,2.72
2022-08-05T10:34:02.649Z,2.85
2022-08-05T10:36:31.213Z,3.75
2022-08-05T10:39:11.692Z,2.72
2022-08-05T10:42:14.603Z,3.63
2022-08-05T10:44:47.116Z,2.75
2022-08-05T10:47:26.237Z,1.85
2022-08-05T10:50:32.526Z,2.13
2022-08-05T10:53:01.029Z,3.17
2022-08-05T10:55:38.597Z,6.83
2022-08-05T10:58:18.069Z,3.05
2022-08-05T11:00:48.446Z,3.97
2022-08-05T11:03:26.362Z,2.97
2022-08-05T11:06:15.344Z,6.10
2022-08-05T11:09:46.421Z,3.97
2022-08-05T11:12:37.288Z,2.80
2022-08-05T11:15:21.143Z,3.40
2022-08-05T11:17:57.140Z,2.00
2022-08-05T11:20:50.952Z,3.10
2022-08-05T11:24:04.360Z,3.20
2022-08-05T11:26:32.851Z,4.57
2022-08-05T11:29:12.517Z,3.13
2022-08-05T11:31:57.234Z,1.48
2022-08-05T11:34:51.638Z,3.05
2022-08-05T11:38:37.399Z,3.23
2022-08-05T11:41:01.032Z,7.28
2022-08-05T11:44:06.214Z,5.18
2022-08-05T11:46:33.273Z,3.95
2022-08-05T11:49:03.705Z,2.60
2022-08-05T11:51:44.077Z,3.70
2022-08-05T11:54:34.376Z,2.30
2022-08-05T11:57:07.908Z,4.22
2022-08-05T11:59:49.564Z,5.13
2022-08-05T12:02:30.616Z,5.22
2022-08-05T12:05:07.494Z,4.33
2022-08-05T12:08:08.585Z,3.22
2022-08-05T12:10:43.431Z,4.53
2022-08-05T12:13:16.830Z,3.38
2022-08-05T12:15:49.768Z,4.00
2022-08-05T12:18:32.773Z,4.53
2022-08-05T12:21:39.153Z,6.40
2022-08-05T12:24:17.570Z,5.88
2022-08-05T12:26:50.692Z,3.17
2022-08-05T12:29:22.939Z,2.65
2022-08-05T12:32:02.209Z,5.00
2022-08-05T12:34:36.998Z,3.47
2022-08-05T12:37:10.870Z,4.32
2022-08-05T12:39:48.493Z,5.60
2022-08-05T12:42:21.012Z,3.90
2022-08-05T12:44:48.996Z,7.30
2022-08-05T12:47:30.957Z,3.65
2022-08-05T12:50:04.854Z,2.85
2022-08-05T12:52:41.951Z,5.15
2022-08-05T12:55:26.336Z,2.97
2022-08-05T12:58:39.029Z,9.17
2022-08-05T13:02:01.518Z,5.28
2022-08-05T13:03:38.879Z,2.90
2022-08-05T13:06:17.631Z,5.93
2022-08-05T13:08:50.684Z,5.43
2022-08-05T13:11:25.631Z,4.27
2022-08-05T13:14:19.694Z,2.67
2022-08-05T13:16:54.751Z,4.78
2022-08-05T13:19:51.605Z,3.78
2022-08-05T13:22:29.379Z,7.50
2022-08-05T13:25:00.482Z,4.67
2022-08-05T13:27:44.092Z,8.40
2022-08-05T13:30:34.476Z,3.88
2022-08-05T13:33:03.408Z,4.63
2022-08-05T13:35:47.436Z,5.15
2022-08-05T13:38:28.193Z,3.13
2022-08-05T13:41:01.368Z,4.07
2022-08-05T13:43:45.235Z,4.38
2022-08-05T13:46:26.441Z,4.05
2022-08-05T13:49:03.980Z,4.80
2022-08-05T13:51:40.005Z,6.70
2022-08-05T13:54:12.684Z,6.47
2022-08-05T13:56:45.262Z,4.78
2022-08-05T13:59:24.293Z,4.18
2022-08-05T14:02:02.282Z,2.90
2022-08-05T14:04:51.764Z,4.20
2022-08-05T14:07:25.764Z,3.75
2022-08-05T14:10:18.678Z,3.67
2022-08-05T14:12:48.875Z,7.15
2022-08-05T14:16:06.075Z,3.95
2022-08-05T14:18:04.038Z,3.30
2022-08-05T14:20:32.719Z,6.32
2022-08-05T14:23:00.465Z,3.22
2022-08-05T14:25:30.312Z,4.47
2022-08-05T14:27:58.405Z,5.03
2022-08-05T14:30:27.707Z,4.37
2022-08-05T14:32:55.287Z,3.63
2022-08-05T14:35:37.336Z,2.50
2022-08-05T14:38:32.384Z,3.80
2022-08-05T14:41:06.283Z,5.25
2022-08-05T14:43:59.355Z,6.27
2022-08-05T14:46:28.357Z,2.55
2022-08-05T14:48:58.996Z,6.63
2022-08-05T14:51:31.163Z,1.73
2022-08-05T14:54:26.497Z,4.75
2022-08-05T14:56:47.229Z,7.90
2022-08-05T14:59:15.204Z,5.78
2022-08-05T15:01:48.987Z,5.68
2022-08-05T15:04:20.513Z,6.43
2022-08-05T15:06:49.903Z,2.65
2022-08-05T15:09:51.889Z,6.37
2022-08-05T15:12:16.999Z,5.63
2022-08-05T15:14:50.039Z,4.50
2022-08-05T15:17:46.289Z,3.60
2022-08-05T15:20:15.640Z,3.15
2022-08-05T15:22:44.987Z,4.03
2022-08-05T15:25:14.092Z,5.60
2022-08-05T15:27:42.917Z,6.32
2022-08-05T15:30:18.855Z,8.77
2022-08-05T15:32:46.712Z,4.28
2022-08-05T15:35:14.900Z,4.33
2022-08-05T15:38:31.900Z,3.58
2022-08-05T15:41:00.282Z,5.13
2022-08-05T15:43:20.473Z,9.15
2022-08-05T15:46:00.551Z,4.57
2022-08-05T15:48:28.823Z,5.03
2022-08-05T15:50:56.427Z,5.18
2022-08-05T15:53:26.479Z,5.47
2022-08-05T15:56:09.176Z,5.22
2022-08-05T15:58:41.134Z,7.30
2022-08-05T16:01:17.044Z,3.43
2022-08-05T16:03:48.323Z,3.28
2022-08-05T16:06:20.377Z,7.15
2022-08-05T16:08:50.362Z,3.60
2022-08-05T16:11:20.821Z,4.53
2022-08-05T16:14:05.597Z,5.53
2022-08-05T16:16:35.121Z,4.15
2022-08-05T16:19:02.453Z,5.68
2022-08-05T16:22:00.661Z,3.72
2022-08-05T16:24:40.241Z,7.80
2022-08-05T16:27:05.216Z,4.37
2022-08-05T16:29:37.329Z,5.97
2022-08-05T16:32:09.717Z,7.00
2022-08-05T16:34:39.232Z,3.35
2022-08-05T16:38:03.378Z,5.20
2022-08-05T16:40:05.219Z,6.07
2022-08-05T16:42:34.562Z,3.10
2022-08-05T16:45:02.009Z,7.38
2022-08-05T16:47:36.193Z,5.53
2022-08-05T16:50:13.917Z,6.50
2022-08-05T16:52:45.906Z,5.03
2022-08-05T16:55:16.369Z,3.67
2022-08-05T16:57:53.681Z,5.40
2022-08-05T17:00:34.386Z,6.53
2022-08-05T17:03:15.180Z,4.45
2022-08-05T17:05:51.733Z,5.43
2022-08-05T17:08:36.734Z,5.53
2022-08-05T17:11:12.845Z,4.15
2022-08-05T17:13:44.158Z,4.38
2022-08-05T17:16:29.763Z,3.88
2022-08-05T17:18:59.452Z,6.40
2022-08-05T17:21:35.663Z,5.05
2022-08-05T17:24:14.328Z,3.67
2022-08-05T17:26:53.013Z,4.78
2022-08-05T17:29:22.341Z,6.63
2022-08-05T17:31:58.216Z,4.67
2022-08-05T17:34:29.821Z,7.82
2022-08-05T17:37:00.465Z,8.52
2022-08-05T17:39:34.290Z,6.43
2022-08-05T17:42:17.825Z,9.32
2022-08-05T17:44:51.641Z,6.63
2022-08-05T17:47:23.064Z,7.88
2022-08-05T17:50:04.005Z,8.55
2022-08-05T17:52:35.096Z,7.03
2022-08-05T17:55:21.801Z,5.22
2022-08-05T17:57:50.204Z,7.63
2022-08-05T18:00:18.576Z,4.45
2022-08-05T18:02:47.179Z,5.57
2022-08-05T18:05:16.900Z,7.28
2022-08-05T18:07:44.864Z,7.20
2022-08-05T18:10:20.533Z,8.13
2022-08-05T18:12:49.573Z,9.52
2022-08-05T18:15:16.658Z,5.53
2022-08-05T18:17:58.959Z,7.15
2022-08-05T18:20:32.140Z,5.75
2022-08-05T18:23:11.349Z,10.17
2022-08-05T18:25:45.557Z,7.93
2022-08-05T18:28:16.229Z,8.32
2022-08-05T18:30:51.237Z,6.32
2022-08-05T18:33:23.057Z,11.13
2022-08-05T18:36:04.936Z,9.70
2022-08-05T18:38:37.045Z,8.55
2022-08-05T18:41:56.162Z,8.40
2022-08-05T18:43:58.083Z,7.18
2022-08-05T18:46:33.019Z,7.03
2022-08-05T18:49:23.207Z,10.07
2022-08-05T18:52:16.089Z,6.15
2022-08-05T18:54:45.880Z,7.80
2022-08-05T18:57:15.778Z,6.45
2022-08-05T19:00:02.302Z,6.57
2022-08-05T19:02:32.663Z,6.13
2022-08-05T19:06:05.550Z,13.77
2022-08-05T19:07:49.811Z,9.43
2022-08-05T19:10:28.418Z,7.43
2022-08-05T19:13:02.417Z,7.05
2022-08-05T19:15:58.109Z,5.33
2022-08-05T19:18:21.949Z,9.68
2022-08-05T19:20:52.727Z,7.05
2022-08-05T19:24:05.773Z,7.05
2022-08-05T19:26:13.753Z,7.88
2022-08-05T19:28:43.947Z,7.00
2022-08-05T19:31:12.894Z,4.97
2022-08-05T19:33:48.426Z,6.90
2022-08-05T19:36:25.991Z,9.65
2022-08-05T19:39:00.584Z,6.75
2022-08-05T19:41:58.250Z,7.17
2022-08-05T19:44:18.831Z,6.82
2022-08-05T19:46:46.048Z,5.50
2022-08-05T19:49:17.256Z,8.00
2022-08-05T19:52:04.278Z,6.22
2022-08-05T19:54:34.351Z,7.80
2022-08-05T19:57:08.461Z,6.88
2022-08-05T19:59:55.859Z,6.15
2022-08-05T20:02:33.566Z,6.40
2022-08-05T20:05:09.634Z,7.38
2022-08-05T20:07:48.250Z,10.57
2022-08-05T20:10:19.361Z,7.75
2022-08-05T20:12:49.497Z,8.10
2022-08-05T20:15:48.503Z,7.65
2022-08-05T20:18:10.533Z,6.68
2022-08-05T20:20:57.197Z,7.80
2022-08-05T20:23:40.449Z,8.68
2022-08-05T20:26:15.901Z,8.45
2022-08-05T20:28:56.131Z,8.80
2022-08-05T20:31:43.086Z,9.07
2022-08-05T20:34:16.817Z,8.33
2022-08-05T20:36:48.891Z,6.53
2022-08-05T20:39:17.147Z,6.57
2022-08-05T20:41:45.430Z,6.63
2022-08-05T20:44:29.389Z,7.15
2022-08-05T20:47:03.779Z,8.40
2022-08-05T20:49:33.220Z,9.15
2022-08-05T20:52:05.456Z,5.70
2022-08-05T20:54:42.819Z,9.27
2022-08-05T20:57:41.803Z,7.68
2022-08-05T21:00:35.087Z,4.93
2022-08-05T21:03:07.523Z,10.57
2022-08-05T21:05:53.890Z,7.47
2022-08-05T21:08:32.842Z,6.32
2022-08-05T21:11:12.283Z,6.95
2022-08-05T21:13:55.758Z,6.23
2022-08-05T21:16:29.099Z,7.25
2022-08-05T21:18:59.956Z,8.75
2022-08-05T21:21:39.731Z,5.53
2022-08-05T21:24:19.755Z,7.22
2022-08-05T21:26:53.517Z,11.13
2022-08-05T21:29:31.421Z,5.95
2022-08-05T21:31:59.951Z,9.82
2022-08-05T21:34:28.178Z,8.65
2022-08-05T21:36:55.461Z,6.57
2022-08-05T21:39:26.653Z,5.40
2022-08-05T21:42:01.205Z,7.32
2022-08-05T21:44:29.346Z,5.95
2022-08-05T21:46:57.988Z,7.00
2022-08-05T21:49:58.858Z,7.70
2022-08-05T21:52:22.735Z,5.40
2022-08-05T21:54:56.154Z,6.32
2022-08-05T21:57:31.973Z,6.35
2022-08-05T22:00:10.746Z,7.40
2022-08-05T22:02:38.973Z,5.95
2022-08-05T22:05:09.105Z,6.03
2022-08-05T22:07:39.756Z,8.13
2022-08-05T22:10:26.840Z,4.95
2022-08-05T22:12:57.404Z,7.00
2022-08-05T22:16:01.060Z,5.97
2022-08-05T22:18:14.461Z,8.13
2022-08-05T22:20:41.972Z,6.90
2022-08-05T22:24:02.160Z,8.00
2022-08-05T22:26:35.234Z,9.30
2022-08-05T22:29:03.113Z,9.23
2022-08-05T22:31:31.506Z,8.57
2022-08-05T22:34:20.191Z,6.57
2022-08-05T22:36:56.511Z,10.52
2022-08-05T22:39:32.558Z,7.28
2022-08-05T22:42:12.175Z,6.65
2022-08-05T22:44:48.157Z,10.70
2022-08-05T22:47:28.916Z,9.73
2022-08-05T22:50:20.112Z,4.93
2022-08-05T22:52:51.406Z,7.10
2022-08-05T22:55:21.844Z,8.73
2022-08-05T22:57:53.546Z,7.80
2022-08-05T23:00:23.538Z,4.78
2022-08-05T23:02:53.541Z,5.85
2022-08-05T23:05:22.621Z,9.07
2022-08-05T23:07:51.183Z,7.22
2022-08-05T23:10:20.971Z,7.27
2022-08-05T23:12:54.579Z,6.53
2022-08-05T23:15:29.414Z,6.43
2022-08-05T23:18:03.349Z,6.13
2022-08-05T23:20:37.124Z,10.75
2022-08-05T23:23:05.940Z,9.97
2022-08-05T23:25:51.258Z,8.35
2022-08-05T23:28:22.036Z,7.03
2022-08-05T23:30:53.516Z,6.72
2022-08-05T23:33:26.203Z,7.80
2022-08-05T23:36:10.165Z,7.73
2022-08-05T23:38:37.877Z,7.32
2022-08-05T23:41:04.931Z,9.18
2022-08-05T23:44:04.439Z,8.07
2022-08-05T23:46:21.987Z,6.00
2022-08-05T23:49:00.460Z,8.90
2022-08-05T23:51:56.899Z,7.38
2022-08-05T23:54:30.240Z,8.85
2022-08-05T23:57:03.766Z,7.68
2022-08-05T23:59:37.754Z,6.65
